createdAt,value
2018-09-29T00:01:30.622Z,3.03
2018-09-29T00:03:58.509Z,3.43
2018-09-29T00:06:26.393Z,5.33
2018-09-29T00:11:21.577Z,3.53
2018-09-29T00:14:24.581Z,2.92
2018-09-29T00:16:52.590Z,2.40
2018-09-29T00:21:47.745Z,3.03
2018-09-29T00:26:43.942Z,2.45
2018-09-29T00:29:11.657Z,3.97
2018-09-29T00:31:39.301Z,3.73
2018-09-29T00:34:06.976Z,3.75
2018-09-29T00:39:02.346Z,2.17
2018-09-29T00:41:30.094Z,2.73
2018-09-29T00:43:57.870Z,3.53
2018-09-29T00:46:25.926Z,3.53
2018-09-29T00:48:53.761Z,3.63
2018-09-29T00:51:21.592Z,3.73
2018-09-29T00:53:50.299Z,4.10
2018-09-29T00:56:17.985Z,6.20
2018-09-29T01:01:13.209Z,2.57
2018-09-29T01:03:40.973Z,2.62
2018-09-29T01:06:08.722Z,2.93
2018-09-29T01:08:37.178Z,1.90
2018-09-29T01:11:05.195Z,2.50
2018-09-29T01:13:33.050Z,1.50
2018-09-29T01:16:00.777Z,3.10
2018-09-29T01:18:28.646Z,2.57
2018-09-29T01:20:56.550Z,2.50
2018-09-29T01:23:24.186Z,2.17
2018-09-29T01:25:51.940Z,3.85
2018-09-29T01:28:19.722Z,1.83
2018-09-29T01:30:47.530Z,3.30
2018-09-29T01:33:15.201Z,4.10
2018-09-29T01:35:43.166Z,5.93
2018-09-29T01:38:10.762Z,4.93
2018-09-29T01:40:38.590Z,2.70
2018-09-29T01:43:06.525Z,5.13
2018-09-29T01:48:01.702Z,3.00
2018-09-29T01:50:29.562Z,2.30
2018-09-29T01:52:57.360Z,3.20
2018-09-29T01:55:25.046Z,3.13
2018-09-29T02:00:20.190Z,2.57
2018-09-29T02:02:48.018Z,2.13
2018-09-29T02:05:16.055Z,2.77
2018-09-29T02:07:43.965Z,1.97
2018-09-29T02:10:11.661Z,3.33
2018-09-29T02:12:39.300Z,2.70
2018-09-29T02:15:06.498Z,5.35
2018-09-29T02:17:34.196Z,2.20
2018-09-29T02:20:02.006Z,2.23
2018-09-29T02:22:29.938Z,3.77
2018-09-29T02:27:25.170Z,2.37
2018-09-29T02:29:52.982Z,3.43
2018-09-29T02:32:20.719Z,2.70
2018-09-29T02:34:48.375Z,2.70
2018-09-29T02:37:16.058Z,5.07
2018-09-29T02:39:44.086Z,3.67
2018-09-29T02:42:11.773Z,2.10
2018-09-29T02:44:39.912Z,3.50
2018-09-29T02:47:07.734Z,3.85
2018-09-29T02:49:35.577Z,6.70
2018-09-29T02:52:03.301Z,4.70
2018-09-29T02:54:31.198Z,3.33
2018-09-29T02:59:26.623Z,2.47
2018-09-29T03:01:54.514Z,2.17
2018-09-29T03:04:22.329Z,2.72
2018-09-29T03:06:51.549Z,3.03
2018-09-29T03:09:20.314Z,4.03
2018-09-29T03:11:48.046Z,3.40
2018-09-29T03:14:15.946Z,3.47
2018-09-29T03:16:43.805Z,2.52
2018-09-29T03:19:12.073Z,3.27
2018-09-29T03:21:39.778Z,1.63
2018-09-29T03:24:07.590Z,2.02
2018-09-29T03:26:35.470Z,2.93
2018-09-29T03:29:03.391Z,1.83
2018-09-29T03:31:31.235Z,2.13
2018-09-29T03:33:59.054Z,3.10
2018-09-29T03:36:26.954Z,2.53
2018-09-29T03:38:54.807Z,2.00
2018-09-29T03:41:22.731Z,3.57
2018-09-29T03:43:50.580Z,2.70
2018-09-29T03:46:18.469Z,5.27
2018-09-29T03:49:38.588Z,2.67
2018-09-29T03:52:06.366Z,3.00
2018-09-29T03:54:34.030Z,3.83
2018-09-29T03:57:01.951Z,2.10
2018-09-29T03:59:29.895Z,2.13
2018-09-29T04:01:57.664Z,2.70
2018-09-29T04:04:25.467Z,3.30
2018-09-29T04:06:53.282Z,1.72
2018-09-29T04:09:20.994Z,2.70
2018-09-29T04:11:48.758Z,2.93
2018-09-29T04:14:16.586Z,2.90
2018-09-29T04:16:44.450Z,2.20
2018-09-29T04:19:12.490Z,4.20
2018-09-29T04:24:17.470Z,2.67
2018-09-29T04:26:45.181Z,2.10
2018-09-29T04:29:14.188Z,1.57
2018-09-29T04:31:42.398Z,1.73
2018-09-29T04:34:10.677Z,2.37
2018-09-29T04:36:38.466Z,3.27
2018-09-29T04:39:09.087Z,4.10
2018-09-29T04:41:37.546Z,2.57
2018-09-29T04:44:05.509Z,1.50
2018-09-29T04:46:33.301Z,3.40
2018-09-29T04:49:00.999Z,4.30
2018-09-29T04:51:28.913Z,4.28
2018-09-29T04:53:56.671Z,3.53
2018-09-29T04:56:24.306Z,3.58
2018-09-29T04:58:52.014Z,2.97
2018-09-29T05:01:19.905Z,2.93
2018-09-29T05:03:47.643Z,4.33
2018-09-29T05:06:15.305Z,1.57
2018-09-29T05:08:42.996Z,3.47
2018-09-29T05:11:10.912Z,2.17
2018-09-29T05:13:38.666Z,2.53
2018-09-29T05:16:06.849Z,3.30
2018-09-29T05:18:34.714Z,3.70
2018-09-29T05:21:02.874Z,6.83
2018-09-29T05:23:30.906Z,2.83
2018-09-29T05:25:58.826Z,3.57
2018-09-29T05:28:26.639Z,2.90
2018-09-29T05:30:54.441Z,2.80
2018-09-29T05:33:22.186Z,4.53
2018-09-29T05:35:50.055Z,6.20
2018-09-29T05:38:17.849Z,5.27
2018-09-29T05:40:45.659Z,4.33
2018-09-29T05:43:13.485Z,2.98
2018-09-29T05:45:41.172Z,4.87
2018-09-29T05:48:08.811Z,4.50
2018-09-29T05:50:36.611Z,6.10
2018-09-29T05:53:04.422Z,5.53
2018-09-29T05:55:32.204Z,3.40
2018-09-29T05:57:59.966Z,4.13
2018-09-29T06:00:27.725Z,5.00
2018-09-29T06:02:55.897Z,3.53
2018-09-29T06:05:23.736Z,7.93
2018-09-29T06:07:51.489Z,3.27
2018-09-29T06:10:19.196Z,4.17
2018-09-29T06:12:47.036Z,5.10
2018-09-29T06:17:42.038Z,3.73
2018-09-29T06:20:10.014Z,6.53
2018-09-29T06:25:05.183Z,8.27
2018-09-29T06:27:32.768Z,5.53
2018-09-29T06:30:26.581Z,5.22
2018-09-29T06:32:54.490Z,1.70
2018-09-29T06:35:22.195Z,4.17
2018-09-29T06:37:49.758Z,3.40
2018-09-29T06:40:17.590Z,3.00
2018-09-29T06:42:45.597Z,5.70
2018-09-29T06:45:14.014Z,5.57
2018-09-29T06:47:42.059Z,1.70
2018-09-29T06:50:09.906Z,5.83
2018-09-29T06:52:37.670Z,3.22
2018-09-29T06:55:05.544Z,3.73
2018-09-29T06:57:33.361Z,6.47
2018-09-29T07:00:01.067Z,11.00
2018-09-29T07:04:56.345Z,7.57
2018-09-29T07:07:24.765Z,8.03
2018-09-29T07:09:53.553Z,6.57
2018-09-29T07:12:21.394Z,3.37
2018-09-29T07:14:49.149Z,8.93
2018-09-29T07:17:17.006Z,3.57
2018-09-29T07:22:11.858Z,6.70
2018-09-29T07:24:40.472Z,5.93
2018-09-29T07:27:08.209Z,4.63
2018-09-29T07:29:36.012Z,7.47
2018-09-29T07:32:03.873Z,4.47
2018-09-29T07:34:31.677Z,7.60
2018-09-29T07:36:59.582Z,6.27
2018-09-29T07:39:27.390Z,6.50
2018-09-29T07:41:55.073Z,2.35
2018-09-29T07:44:22.763Z,3.37
2018-09-29T07:46:50.671Z,7.00
2018-09-29T07:49:18.474Z,8.77
2018-09-29T07:51:46.454Z,3.20
2018-09-29T07:54:14.178Z,6.77
2018-09-29T07:56:41.985Z,6.90
2018-09-29T07:59:09.846Z,11.23
2018-09-29T08:01:37.759Z,5.80
2018-09-29T08:04:05.625Z,3.73
2018-09-29T08:06:33.370Z,5.73
2018-09-29T08:09:01.007Z,6.27
2018-09-29T08:11:28.931Z,6.97
2018-09-29T08:13:56.773Z,4.10
2018-09-29T08:16:24.617Z,8.20
2018-09-29T08:21:19.726Z,9.80
2018-09-29T08:23:47.810Z,7.10
2018-09-29T08:26:15.626Z,6.43
2018-09-29T08:28:43.369Z,5.40
2018-09-29T08:34:27.586Z,5.22
2018-09-29T08:38:06.752Z,5.62
2018-09-29T08:40:34.630Z,10.10
2018-09-29T08:43:02.412Z,9.77
2018-09-29T08:45:30.549Z,7.35
2018-09-29T08:47:58.358Z,3.77
2018-09-29T08:50:26.473Z,5.67
2018-09-29T08:52:54.230Z,5.83
2018-09-29T08:55:21.946Z,6.70
2018-09-29T08:57:49.755Z,7.37
2018-09-29T09:00:17.595Z,3.80
2018-09-29T09:02:45.510Z,5.87
2018-09-29T09:05:13.207Z,7.30
2018-09-29T09:07:40.976Z,4.53
2018-09-29T09:10:08.777Z,5.40
2018-09-29T09:12:36.575Z,7.60
2018-09-29T09:15:04.417Z,7.70
2018-09-29T09:17:32.067Z,3.60
2018-09-29T09:19:59.969Z,6.75
2018-09-29T09:22:27.665Z,8.63
2018-09-29T09:24:55.404Z,2.30
2018-09-29T09:27:23.405Z,7.37
2018-09-29T09:29:51.260Z,4.77
2018-09-29T09:32:18.957Z,4.80
2018-09-29T09:34:46.886Z,6.27
2018-09-29T09:37:14.674Z,4.60
2018-09-29T09:39:42.382Z,3.53
2018-09-29T09:42:10.207Z,5.15
2018-09-29T09:44:37.997Z,11.80
2018-09-29T09:47:06.107Z,2.50
2018-09-29T09:52:01.177Z,4.10
2018-09-29T09:54:28.938Z,5.45
2018-09-29T09:56:58.008Z,3.47
2018-09-29T10:01:59.547Z,13.25
2018-09-29T10:04:27.383Z,6.23
2018-09-29T10:06:55.188Z,8.33
2018-09-29T10:09:23.054Z,5.13
2018-09-29T10:11:50.894Z,3.62
2018-09-29T10:14:18.741Z,4.53
2018-09-29T10:16:46.587Z,5.93
2018-09-29T10:19:14.310Z,3.87
2018-09-29T10:21:42.041Z,1.67
2018-09-29T10:26:37.734Z,4.77
2018-09-29T10:29:05.671Z,7.37
2018-09-29T10:31:33.626Z,4.72
2018-09-29T10:34:01.650Z,4.57
2018-09-29T10:38:05.742Z,5.08
2018-09-29T10:42:46.594Z,7.20
2018-09-29T10:47:41.922Z,5.97
2018-09-29T10:50:09.721Z,5.15
2018-09-29T10:52:39.027Z,5.27
2018-09-29T10:57:34.205Z,5.97
2018-09-29T11:00:01.926Z,5.70
2018-09-29T11:02:29.868Z,7.60
2018-09-29T11:04:57.908Z,7.90
2018-09-29T11:07:25.791Z,5.63
2018-09-29T11:09:53.776Z,7.40
2018-09-29T11:12:21.754Z,8.68
2018-09-29T11:14:49.602Z,9.53
2018-09-29T11:17:17.396Z,4.63
2018-09-29T11:19:45.198Z,12.50
2018-09-29T11:22:13.049Z,11.12
2018-09-29T11:24:41.001Z,7.60
2018-09-29T11:27:09.542Z,8.23
2018-09-29T11:29:37.305Z,8.23
2018-09-29T11:32:05.032Z,12.57
2018-09-29T11:34:33.217Z,11.50
2018-09-29T11:37:00.959Z,9.13
2018-09-29T11:39:29.051Z,5.27
2018-09-29T11:41:56.697Z,10.13
2018-09-29T11:44:24.716Z,9.40
2018-09-29T11:46:53.191Z,5.33
2018-09-29T11:49:20.864Z,10.20
2018-09-29T11:51:48.795Z,8.30
2018-09-29T11:54:16.588Z,8.23
2018-09-29T11:59:11.595Z,7.07
2018-09-29T12:01:39.826Z,5.07
2018-09-29T12:06:34.940Z,8.10
2018-09-29T12:09:02.910Z,14.20
2018-09-29T12:11:30.757Z,11.67
2018-09-29T12:13:58.612Z,9.23
2018-09-29T12:16:26.586Z,4.97
2018-09-29T12:18:54.513Z,5.35
2018-09-29T12:21:22.521Z,8.37
2018-09-29T12:23:50.578Z,5.13
2018-09-29T12:26:18.679Z,9.43
2018-09-29T12:28:46.598Z,5.23
2018-09-29T12:31:14.573Z,4.57
2018-09-29T12:33:42.424Z,6.50
2018-09-29T12:36:10.240Z,11.80
2018-09-29T12:38:38.200Z,8.43
2018-09-29T12:41:06.052Z,8.67
2018-09-29T12:43:33.876Z,8.15
2018-09-29T12:46:01.635Z,5.50
2018-09-29T12:48:29.846Z,5.90
2018-09-29T12:53:36.878Z,4.17
2018-09-29T12:56:04.712Z,8.37
2018-09-29T12:58:32.930Z,8.73
2018-09-29T13:01:00.743Z,7.73
2018-09-29T13:03:28.625Z,4.83
2018-09-29T13:05:56.322Z,11.17
2018-09-29T13:08:24.415Z,5.00
2018-09-29T13:10:52.371Z,6.50
2018-09-29T13:13:20.067Z,5.58
2018-09-29T13:15:47.884Z,6.90
2018-09-29T13:20:42.967Z,10.03
2018-09-29T13:23:10.762Z,7.60
2018-09-29T13:25:38.617Z,12.33
2018-09-29T13:28:06.566Z,14.15
2018-09-29T13:30:34.313Z,14.87
2018-09-29T13:33:02.023Z,10.70
2018-09-29T13:35:29.877Z,25.93
2018-09-29T13:37:57.799Z,14.80
2018-09-29T13:40:25.682Z,21.50
2018-09-29T13:42:53.318Z,18.43
2018-09-29T13:45:21.225Z,11.93
2018-09-29T13:47:49.234Z,14.00
2018-09-29T13:50:16.933Z,11.47
2018-09-29T13:52:44.769Z,17.10
2018-09-29T13:55:12.593Z,13.35
2018-09-29T13:57:40.321Z,11.70
2018-09-29T14:00:08.081Z,12.90
2018-09-29T14:02:36.077Z,17.50
2018-09-29T14:05:03.863Z,12.27
2018-09-29T14:07:31.728Z,11.00
2018-09-29T14:09:59.569Z,9.67
2018-09-29T14:12:27.741Z,6.00
2018-09-29T14:14:55.561Z,5.78
2018-09-29T14:19:50.778Z,6.60
2018-09-29T14:22:18.546Z,6.57
2018-09-29T14:24:46.226Z,4.15
2018-09-29T14:29:47.718Z,5.97
2018-09-29T14:32:15.593Z,3.83
2018-09-29T14:34:43.330Z,6.80
2018-09-29T14:37:11.039Z,6.12
2018-09-29T14:42:06.572Z,6.27
2018-09-29T14:44:34.306Z,6.00
2018-09-29T14:47:01.983Z,4.70
2018-09-29T14:51:57.175Z,6.40
2018-09-29T14:54:24.893Z,4.10
2018-09-29T14:56:52.689Z,8.47
2018-09-29T14:59:20.462Z,5.80
2018-09-29T15:01:48.205Z,3.57
2018-09-29T15:04:15.773Z,4.60
2018-09-29T15:06:43.591Z,4.90
2018-09-29T15:09:12.846Z,4.55
2018-09-29T15:11:41.008Z,5.60
2018-09-29T15:14:09.609Z,5.97
2018-09-29T15:16:37.390Z,7.87
2018-09-29T15:19:05.282Z,6.42
2018-09-29T15:21:32.993Z,6.17
2018-09-29T15:26:28.842Z,4.90
2018-09-29T15:28:56.913Z,4.63
2018-09-29T15:31:24.773Z,6.30
2018-09-29T15:33:52.735Z,4.87
2018-09-29T15:36:20.822Z,5.20
2018-09-29T15:38:48.653Z,4.33
2018-09-29T15:41:16.385Z,3.57
2018-09-29T15:46:11.593Z,6.97
2018-09-29T15:48:39.539Z,4.47
2018-09-29T15:53:35.026Z,4.23
2018-09-29T15:56:02.798Z,3.02
2018-09-29T15:58:30.676Z,7.07
2018-09-29T16:00:58.304Z,4.40
2018-09-29T16:03:25.993Z,6.73
2018-09-29T16:05:53.653Z,5.37
2018-09-29T16:08:21.417Z,6.20
2018-09-29T16:10:49.345Z,5.30
2018-09-29T16:13:17.256Z,9.67
2018-09-29T16:15:45.225Z,6.08
2018-09-29T16:18:12.975Z,8.30
2018-09-29T16:20:41.044Z,4.83
2018-09-29T16:23:08.774Z,5.80
2018-09-29T16:25:36.573Z,9.98
2018-09-29T16:28:04.585Z,6.00
2018-09-29T16:32:59.942Z,6.47
2018-09-29T16:35:27.750Z,7.45
2018-09-29T16:37:55.591Z,5.50
2018-09-29T16:40:23.538Z,4.30
2018-09-29T16:42:51.533Z,6.07
2018-09-29T16:45:19.481Z,12.87
2018-09-29T16:47:47.393Z,9.77
2018-09-29T16:50:15.169Z,6.40
2018-09-29T16:52:42.954Z,11.97
2018-09-29T16:55:10.763Z,15.43
2018-09-29T16:57:39.215Z,11.18
2018-09-29T17:00:07.232Z,8.77
2018-09-29T17:02:35.117Z,7.87
2018-09-29T17:05:03.190Z,9.90
2018-09-29T17:07:30.970Z,6.63
2018-09-29T17:09:59.046Z,4.20
2018-09-29T17:12:26.877Z,3.60
2018-09-29T17:14:54.829Z,4.97
2018-09-29T17:17:22.757Z,5.27
2018-09-29T17:19:50.674Z,4.90
2018-09-29T17:22:18.594Z,9.77
2018-09-29T17:24:46.713Z,7.57
2018-09-29T17:29:10.645Z,8.20
2018-09-29T17:31:38.685Z,4.90
2018-09-29T17:34:06.619Z,17.03
2018-09-29T17:37:22.830Z,14.18
2018-09-29T17:42:20.902Z,5.65
2018-09-29T17:44:50.552Z,6.78
2018-09-29T17:47:19.837Z,7.35
2018-09-29T17:49:49.032Z,5.97
2018-09-29T17:52:18.796Z,6.85
2018-09-29T17:54:48.793Z,7.17
2018-09-29T17:57:18.660Z,10.25
2018-09-29T17:59:47.801Z,8.00
2018-09-29T18:02:18.026Z,12.33
2018-09-29T18:04:47.870Z,9.75
2018-09-29T18:07:17.646Z,14.15
2018-09-29T18:09:47.066Z,8.08
2018-09-29T18:13:23.785Z,11.25
2018-09-29T18:15:53.638Z,12.40
2018-09-29T18:18:22.860Z,16.60
2018-09-29T18:20:53.197Z,12.00
2018-09-29T18:25:55.707Z,16.23
2018-09-29T18:28:24.903Z,14.53
2018-09-29T18:33:23.746Z,12.15
2018-09-29T18:35:52.837Z,18.80
2018-09-29T18:38:22.534Z,14.73
2018-09-29T18:40:52.438Z,14.23
2018-09-29T18:43:21.790Z,11.63
2018-09-29T18:45:50.939Z,13.08
2018-09-29T18:48:20.750Z,16.20
2018-09-29T18:50:49.849Z,16.35
2018-09-29T18:53:18.846Z,12.77
2018-09-29T18:55:47.858Z,10.60
2018-09-29T18:59:54.297Z,12.35
2018-09-29T19:02:22.006Z,10.40
2018-09-29T19:04:49.887Z,11.83
2018-09-29T19:07:17.714Z,8.28
2018-09-29T19:09:45.578Z,9.13
2018-09-29T19:12:13.625Z,8.17
2018-09-29T19:14:41.554Z,8.37
2018-09-29T19:19:36.577Z,9.30
2018-09-29T19:24:44.211Z,11.22
2018-09-29T19:27:13.693Z,11.20
2018-09-29T19:29:42.854Z,11.22
2018-09-29T19:32:11.861Z,8.40
2018-09-29T19:34:41.069Z,9.25
2018-09-29T19:37:10.750Z,7.80
2018-09-29T19:39:39.975Z,10.15
2018-09-29T19:42:09.180Z,13.38
2018-09-29T19:44:38.717Z,15.85
2018-09-29T19:47:07.862Z,10.20
2018-09-29T19:49:36.893Z,11.65
2018-09-29T19:52:06.062Z,11.22
2018-09-29T19:54:35.177Z,11.70
2018-09-29T19:57:04.696Z,13.48
2018-09-29T20:02:05.829Z,15.28
2018-09-29T20:04:34.906Z,11.65
2018-09-29T20:07:04.555Z,8.00
2018-09-29T20:12:10.470Z,12.20
2018-09-29T20:14:39.602Z,11.80
2018-09-29T20:19:36.908Z,9.15
2018-09-29T20:22:09.781Z,11.18
2018-09-29T20:24:38.870Z,9.43
2018-09-29T20:27:08.775Z,8.63
2018-09-29T20:29:37.927Z,12.58
2018-09-29T20:34:21.669Z,8.65
2018-09-29T20:36:49.542Z,9.57
2018-09-29T20:39:17.390Z,9.77
2018-09-29T20:41:45.062Z,7.53
2018-09-29T20:44:13.349Z,12.13
2018-09-29T20:46:41.056Z,10.87
2018-09-29T20:49:09.046Z,7.10
2018-09-29T20:51:37.011Z,8.20
2018-09-29T20:54:05.005Z,8.28
2018-09-29T20:59:00.277Z,7.47
2018-09-29T21:01:28.300Z,7.92
2018-09-29T21:03:57.823Z,12.90
2018-09-29T21:06:27.135Z,12.98
2018-09-29T21:08:58.754Z,10.00
2018-09-29T21:11:27.925Z,12.00
2018-09-29T21:15:23.169Z,8.18
2018-09-29T21:20:37.203Z,8.95
2018-09-29T21:25:48.622Z,9.00
2018-09-29T21:28:17.844Z,9.23
2018-09-29T21:30:46.921Z,7.95
2018-09-29T21:33:16.054Z,10.45
2018-09-29T21:36:24.846Z,7.00
2018-09-29T21:38:54.124Z,8.68
2018-09-29T21:41:23.777Z,6.15
2018-09-29T21:43:53.029Z,6.73
2018-09-29T21:48:50.903Z,9.68
2018-09-29T21:51:20.779Z,8.00
2018-09-29T21:53:51.007Z,6.37
2018-09-29T22:01:23.938Z,8.28
2018-09-29T22:03:53.742Z,9.13
2018-09-29T22:06:23.705Z,6.00
2018-09-29T22:08:53.049Z,8.20
2018-09-29T22:16:17.783Z,9.40
2018-09-29T22:18:46.877Z,8.00
2018-09-29T22:21:16.821Z,8.80
2018-09-29T22:23:46.220Z,8.93
2018-09-29T22:26:15.934Z,9.10
2018-09-29T22:28:45.806Z,8.87
2018-09-29T22:31:15.424Z,6.37
2018-09-29T22:33:44.862Z,6.80
2018-09-29T22:38:43.942Z,5.67
2018-09-29T22:46:15.767Z,8.15
2018-09-29T22:48:45.685Z,7.20
2018-09-29T22:51:16.330Z,8.30
2018-09-29T22:53:45.793Z,8.40
2018-09-29T22:56:15.588Z,10.20
2018-09-29T22:58:44.913Z,10.47
2018-09-29T23:01:14.097Z,6.37
2018-09-29T23:03:43.743Z,11.88
2018-09-29T23:06:12.954Z,6.83
2018-09-29T23:08:42.794Z,8.45
2018-09-29T23:14:48.225Z,6.22
2018-09-29T23:19:46.757Z,6.77
2018-09-29T23:24:45.766Z,6.33
2018-09-29T23:27:15.674Z,8.60
2018-09-29T23:29:44.878Z,6.27
2018-09-29T23:32:14.656Z,5.53
2018-09-29T23:34:43.877Z,5.50
2018-09-29T23:37:46.882Z,4.85
2018-09-29T23:40:16.746Z,6.30
2018-09-29T23:42:46.218Z,4.70
2018-09-29T23:45:15.926Z,6.87
2018-09-29T23:47:45.936Z,4.73
2018-09-29T23:50:15.874Z,7.63
2018-09-29T23:52:45.870Z,5.73
2018-09-29T23:55:15.754Z,5.03
2018-09-29T23:57:44.937Z,5.67
